createdAt,value
2019-04-05T00:00:51.396Z,12.60
2019-04-05T00:01:51.404Z,12.40
2019-04-05T00:02:51.407Z,12.80
2019-04-05T00:03:51.374Z,12.60
2019-04-05T00:04:51.359Z,12.90
2019-04-05T00:05:51.350Z,12.30
2019-04-05T00:06:51.342Z,12.40
2019-04-05T00:07:51.337Z,12.20
2019-04-05T00:08:52.327Z,12.40
2019-04-05T00:09:51.316Z,12.10
2019-04-05T00:10:51.289Z,12.80
2019-04-05T00:11:51.291Z,12.90
2019-04-05T00:12:51.301Z,12.90
2019-04-05T00:13:51.261Z,12.50
2019-04-05T00:14:51.250Z,12.80
2019-04-05T00:15:51.250Z,12.20
2019-04-05T00:16:51.231Z,13.00
2019-04-05T00:17:51.241Z,12.50
2019-04-05T00:18:51.218Z,12.60
2019-04-05T00:19:51.229Z,12.40
2019-04-05T00:20:51.183Z,12.90
2019-04-05T00:21:51.173Z,12.50
2019-04-05T00:22:51.165Z,12.60
2019-04-05T00:23:51.165Z,13.40
2019-04-05T00:24:51.172Z,12.70
2019-04-05T00:25:51.136Z,12.60
2019-04-05T00:26:51.126Z,13.10
2019-04-05T00:27:51.113Z,12.70
2019-04-05T00:28:51.862Z,12.70
2019-04-05T00:29:51.117Z,13.10
2019-04-05T00:30:51.087Z,13.00
2019-04-05T00:31:51.069Z,13.10
2019-04-05T00:32:51.073Z,12.90
2019-04-05T00:33:51.050Z,12.60
2019-04-05T00:34:51.053Z,13.40
2019-04-05T00:35:51.028Z,13.10
2019-04-05T00:36:51.044Z,13.10
2019-04-05T00:37:51.004Z,12.90
2019-04-05T00:38:50.999Z,13.20
2019-04-05T00:39:50.985Z,12.60
2019-04-05T00:40:50.998Z,13.00
2019-04-05T00:41:50.962Z,13.00
2019-04-05T00:42:50.954Z,12.50
2019-04-05T00:43:50.942Z,12.80
2019-04-05T00:44:50.931Z,13.40
2019-04-05T00:45:50.916Z,13.20
2019-04-05T00:46:50.936Z,13.00
2019-04-05T00:47:50.907Z,12.80
2019-04-05T00:48:50.887Z,13.60
2019-04-05T00:49:50.870Z,13.20
2019-04-05T00:50:50.863Z,13.30
2019-04-05T00:51:50.862Z,13.20
2019-04-05T00:52:50.834Z,13.60
2019-04-05T00:53:50.826Z,13.50
2019-04-05T00:54:50.834Z,13.70
2019-04-05T00:55:50.809Z,13.40
2019-04-05T00:56:50.796Z,13.30
2019-04-05T00:57:50.800Z,12.90
2019-04-05T00:58:50.774Z,13.10
2019-04-05T00:59:50.754Z,13.00
2019-04-05T01:00:50.742Z,12.80
2019-04-05T01:01:50.744Z,13.70
2019-04-05T01:02:50.754Z,13.20
2019-04-05T01:03:50.717Z,13.10
2019-04-05T01:04:50.698Z,13.10
2019-04-05T01:05:50.692Z,13.20
2019-04-05T01:06:50.680Z,13.20
2019-04-05T01:07:50.706Z,12.80
2019-04-05T01:08:50.666Z,13.90
2019-04-05T01:09:50.654Z,13.10
2019-04-05T01:10:50.653Z,13.70
2019-04-05T01:11:50.624Z,13.30
2019-04-05T01:12:50.642Z,13.20
2019-04-05T01:13:50.629Z,13.40
2019-04-05T01:14:50.591Z,13.60
2019-04-05T01:15:50.597Z,13.20
2019-04-05T01:16:50.585Z,12.90
2019-04-05T01:17:50.560Z,12.80
2019-04-05T01:18:50.575Z,13.40
2019-04-05T01:19:50.560Z,13.70
2019-04-05T01:20:50.731Z,13.20
2019-04-05T01:21:50.531Z,13.40
2019-04-05T01:22:50.516Z,13.20
2019-04-05T01:23:50.494Z,13.20
2019-04-05T01:24:50.519Z,13.70
2019-04-05T01:25:50.472Z,13.70
2019-04-05T01:26:50.464Z,13.20
2019-04-05T01:27:50.465Z,13.80
2019-04-05T01:28:50.447Z,13.60
2019-04-05T01:29:50.435Z,13.60
2019-04-05T01:30:50.443Z,13.50
2019-04-05T01:31:50.417Z,13.90
2019-04-05T01:32:50.398Z,14.30
2019-04-05T01:33:50.402Z,13.40
2019-04-05T01:34:50.382Z,13.80
2019-04-05T01:35:50.389Z,13.20
2019-04-05T01:36:50.356Z,13.50
2019-04-05T01:37:50.346Z,13.70
2019-04-05T01:38:50.336Z,13.40
2019-04-05T01:39:50.329Z,13.60
2019-04-05T01:40:50.637Z,14.00
2019-04-05T01:41:50.307Z,13.70
2019-04-05T01:42:50.303Z,14.30
2019-04-05T01:43:50.293Z,13.80
2019-04-05T01:44:51.957Z,13.70
2019-04-05T01:45:54.062Z,14.30
2019-04-05T01:46:50.250Z,13.90
2019-04-05T01:47:50.244Z,13.90
2019-04-05T01:48:50.237Z,13.90
2019-04-05T01:49:50.214Z,13.90
2019-04-05T01:50:50.210Z,13.80
2019-04-05T01:51:50.234Z,14.30
2019-04-05T01:52:50.192Z,14.20
2019-04-05T01:53:50.182Z,13.60
2019-04-05T01:54:50.176Z,14.10
2019-04-05T01:55:50.157Z,14.40
2019-04-05T01:56:50.171Z,14.10
2019-04-05T01:57:50.133Z,14.10
2019-04-05T01:58:50.131Z,14.20
2019-04-05T01:59:50.180Z,14.60
2019-04-05T02:00:50.115Z,14.20
2019-04-05T02:01:50.100Z,14.10
2019-04-05T02:02:50.108Z,13.90
2019-04-05T02:03:50.075Z,14.50
2019-04-05T02:04:52.649Z,13.90
2019-04-05T02:05:50.060Z,13.70
2019-04-05T02:06:50.065Z,14.10
2019-04-05T02:07:50.049Z,14.30
2019-04-05T02:08:50.043Z,14.40
2019-04-05T02:09:50.003Z,14.20
2019-04-05T02:10:49.991Z,14.40
2019-04-05T02:11:49.994Z,14.10
2019-04-05T02:12:49.979Z,14.60
2019-04-05T02:13:49.985Z,13.90
2019-04-05T02:14:49.957Z,14.70
2019-04-05T02:15:49.950Z,14.10
2019-04-05T02:16:49.928Z,14.00
2019-04-05T02:17:49.926Z,14.30
2019-04-05T02:18:49.935Z,14.20
2019-04-05T02:19:49.908Z,14.70
2019-04-05T02:20:49.902Z,14.30
2019-04-05T02:21:49.882Z,14.10
2019-04-05T02:22:49.870Z,14.40
2019-04-05T02:23:49.889Z,14.40
2019-04-05T02:24:49.860Z,14.50
2019-04-05T02:25:49.842Z,14.80
2019-04-05T02:26:49.829Z,14.70
2019-04-05T02:27:49.814Z,15.00
2019-04-05T02:28:49.813Z,13.80
2019-04-05T02:29:49.824Z,14.50
2019-04-05T02:30:49.782Z,14.70
2019-04-05T02:31:49.788Z,13.90
2019-04-05T02:32:49.782Z,14.30
2019-04-05T02:33:49.755Z,14.30
2019-04-05T02:34:49.746Z,14.50
2019-04-05T02:35:49.755Z,14.40
2019-04-05T02:36:49.732Z,14.60
2019-04-05T02:37:49.715Z,14.80
2019-04-05T02:38:49.706Z,14.80
2019-04-05T02:39:49.697Z,14.00
2019-04-05T02:40:49.713Z,14.60
2019-04-05T02:41:49.673Z,14.20
2019-04-05T02:42:49.660Z,15.00
2019-04-05T02:43:49.657Z,14.80
2019-04-05T02:44:49.640Z,14.10
2019-04-05T02:45:49.639Z,14.60
2019-04-05T02:46:49.638Z,14.60
2019-04-05T02:47:51.808Z,14.20
2019-04-05T02:48:49.585Z,14.60
2019-04-05T02:49:49.603Z,14.60
2019-04-05T02:50:49.559Z,14.80
2019-04-05T02:51:49.583Z,15.10
2019-04-05T02:52:49.558Z,14.90
2019-04-05T02:53:49.538Z,14.20
2019-04-05T02:54:49.518Z,14.30
2019-04-05T02:55:49.521Z,14.90
2019-04-05T02:56:49.528Z,14.90
2019-04-05T02:57:49.492Z,14.90
2019-04-05T02:58:49.497Z,14.40
2019-04-05T02:59:49.476Z,14.80
2019-04-05T03:00:49.492Z,15.00
2019-04-05T03:01:49.469Z,15.20
2019-04-05T03:02:49.433Z,15.10
2019-04-05T03:03:49.427Z,15.40
2019-04-05T03:04:49.428Z,14.70
2019-04-05T03:05:49.410Z,14.70
2019-04-05T03:06:49.399Z,14.70
2019-04-05T03:07:49.407Z,15.60
2019-04-05T03:08:49.368Z,15.10
2019-04-05T03:09:49.391Z,14.90
2019-04-05T03:10:49.391Z,14.90
2019-04-05T03:11:50.118Z,15.20
2019-04-05T03:12:49.324Z,15.30
2019-04-05T03:13:49.318Z,14.60
2019-04-05T03:14:49.303Z,14.70
2019-04-05T03:15:49.305Z,14.50
2019-04-05T03:16:49.309Z,15.60
2019-04-05T03:17:49.297Z,15.00
2019-04-05T03:18:49.286Z,14.50
2019-04-05T03:19:49.261Z,14.60
2019-04-05T03:20:49.239Z,14.70
2019-04-05T03:21:49.233Z,15.50
2019-04-05T03:22:49.216Z,14.10
2019-04-05T03:23:49.233Z,15.00
2019-04-05T03:24:49.202Z,15.00
2019-04-05T03:25:49.184Z,14.60
2019-04-05T03:26:49.199Z,15.10
2019-04-05T03:27:49.173Z,14.50
2019-04-05T03:28:49.179Z,14.70
2019-04-05T03:29:49.145Z,15.00
2019-04-05T03:30:49.137Z,14.90
2019-04-05T03:31:49.120Z,15.10
2019-04-05T03:32:49.127Z,14.70
2019-04-05T03:33:49.105Z,15.40
2019-04-05T03:34:49.088Z,15.00
2019-04-05T03:35:49.081Z,15.00
2019-04-05T03:36:51.606Z,15.10
2019-04-05T03:37:49.089Z,15.40
2019-04-05T03:38:49.053Z,15.60
2019-04-05T03:39:49.038Z,14.70
2019-04-05T03:40:49.026Z,15.00
2019-04-05T03:41:49.025Z,14.40
2019-04-05T03:42:49.012Z,15.30
2019-04-05T03:43:49.155Z,14.50
2019-04-05T03:44:49.021Z,15.00
2019-04-05T03:45:48.977Z,14.70
2019-04-05T03:46:57.212Z,14.70
2019-04-05T03:47:49.951Z,15.90
2019-04-05T03:48:48.946Z,15.00
2019-04-05T03:49:48.936Z,14.70
2019-04-05T03:50:48.953Z,15.10
2019-04-05T03:51:48.912Z,14.60
2019-04-05T03:52:48.896Z,14.60
2019-04-05T03:53:48.884Z,15.40
2019-04-05T03:54:48.901Z,15.20
2019-04-05T03:55:48.874Z,15.20
2019-04-05T03:56:48.868Z,15.60
2019-04-05T03:57:48.842Z,15.60
2019-04-05T03:58:48.830Z,14.80
2019-04-05T03:59:48.825Z,15.20
2019-04-05T04:00:48.838Z,15.10
2019-04-05T04:01:48.802Z,14.90
2019-04-05T04:02:49.638Z,15.20
2019-04-05T04:03:48.775Z,15.10
2019-04-05T04:04:48.802Z,15.80
2019-04-05T04:05:48.756Z,15.70
2019-04-05T04:06:48.756Z,14.90
2019-04-05T04:07:49.654Z,15.60
2019-04-05T04:08:48.726Z,14.70
2019-04-05T04:09:48.749Z,15.10
2019-04-05T04:10:48.716Z,15.00
2019-04-05T04:11:48.692Z,15.70
2019-04-05T04:12:48.685Z,15.50
2019-04-05T04:13:48.684Z,15.30
2019-04-05T04:14:48.672Z,15.30
2019-04-05T04:15:48.679Z,15.80
2019-04-05T04:16:48.642Z,15.30
2019-04-05T04:17:48.635Z,15.40
2019-04-05T04:18:48.632Z,15.20
2019-04-05T04:19:48.615Z,15.70
2019-04-05T04:20:48.629Z,15.30
2019-04-05T04:21:48.597Z,15.60
2019-04-05T04:22:48.679Z,16.20
2019-04-05T04:23:48.565Z,16.40
2019-04-05T04:24:48.556Z,15.80
2019-04-05T04:25:48.569Z,15.20
2019-04-05T04:26:48.551Z,15.40
2019-04-05T04:27:48.527Z,15.50
2019-04-05T04:28:48.514Z,15.50
2019-04-05T04:29:48.504Z,16.10
2019-04-05T04:30:48.490Z,16.00
2019-04-05T04:31:48.511Z,15.50
2019-04-05T04:32:48.477Z,15.80
2019-04-05T04:33:48.461Z,15.20
2019-04-05T04:34:48.449Z,15.40
2019-04-05T04:35:48.438Z,15.80
2019-04-05T04:36:48.456Z,16.10
2019-04-05T04:37:48.413Z,16.20
2019-04-05T04:38:48.401Z,16.00
2019-04-05T04:39:48.391Z,15.90
2019-04-05T04:40:48.384Z,15.60
2019-04-05T04:41:48.375Z,15.70
2019-04-05T04:42:48.382Z,15.80
2019-04-05T04:43:48.366Z,15.40
2019-04-05T04:44:48.339Z,15.20
2019-04-05T04:45:48.338Z,16.00
2019-04-05T04:46:48.327Z,15.90
2019-04-05T04:47:48.326Z,15.50
2019-04-05T04:48:48.298Z,16.40
2019-04-05T04:49:49.277Z,16.00
2019-04-05T04:50:48.269Z,15.60
2019-04-05T04:51:48.272Z,16.20
2019-04-05T04:52:48.296Z,16.10
2019-04-05T04:53:48.245Z,16.40
2019-04-05T04:54:48.235Z,15.60
2019-04-05T04:55:48.225Z,16.30
2019-04-05T04:56:48.208Z,16.20
2019-04-05T04:57:48.204Z,16.40
2019-04-05T04:58:48.216Z,16.50
2019-04-05T04:59:48.186Z,16.90
2019-04-05T05:00:48.172Z,16.40
2019-04-05T05:01:48.159Z,16.00
2019-04-05T05:02:48.143Z,16.50
2019-04-05T05:03:48.143Z,16.60
2019-04-05T05:04:48.155Z,16.00
2019-04-05T05:05:48.125Z,16.70
2019-04-05T05:06:48.114Z,16.60
2019-04-05T05:07:48.088Z,16.60
2019-04-05T05:08:48.104Z,16.30
2019-04-05T05:09:48.067Z,16.70
2019-04-05T05:10:48.062Z,16.00
2019-04-05T05:11:48.054Z,16.00
2019-04-05T05:12:48.081Z,17.10
2019-04-05T05:13:48.053Z,15.90
2019-04-05T05:14:48.038Z,16.10
2019-04-05T05:15:48.008Z,16.50
2019-04-05T05:16:48.001Z,17.80
2019-04-05T05:17:58.125Z,17.00
2019-04-05T05:18:48.975Z,17.10
2019-04-05T05:19:47.987Z,16.80
2019-04-05T05:20:47.998Z,16.50
2019-04-05T05:21:47.947Z,16.60
2019-04-05T05:22:47.936Z,16.80
2019-04-05T05:23:47.965Z,16.50
2019-04-05T05:24:47.941Z,16.50
2019-04-05T05:25:47.917Z,16.30
2019-04-05T05:26:47.896Z,16.10
2019-04-05T05:27:47.916Z,16.40
2019-04-05T05:28:47.872Z,16.40
2019-04-05T05:29:47.856Z,16.60
2019-04-05T05:30:47.865Z,16.50
2019-04-05T05:31:47.866Z,15.80
2019-04-05T05:32:47.832Z,17.00
2019-04-05T05:33:47.815Z,16.60
2019-04-05T05:35:01.147Z,16.60
2019-04-05T05:35:48.806Z,17.40
2019-04-05T05:36:47.819Z,16.50
2019-04-05T05:37:47.783Z,16.70
2019-04-05T05:38:47.766Z,16.40
2019-04-05T05:39:47.747Z,16.30
2019-04-05T05:40:47.740Z,16.80
2019-04-05T05:41:47.728Z,16.60
2019-04-05T05:42:47.752Z,16.50
2019-04-05T05:43:47.711Z,16.60
2019-04-05T05:44:47.699Z,17.00
2019-04-05T05:45:47.687Z,17.30
2019-04-05T05:46:47.677Z,16.70
2019-04-05T05:47:52.106Z,17.00
2019-04-05T05:48:47.661Z,16.80
2019-04-05T05:49:47.643Z,16.30
2019-04-05T05:50:47.633Z,16.80
2019-04-05T05:51:47.622Z,16.70
2019-04-05T05:52:47.607Z,16.50
2019-04-05T05:53:47.631Z,17.30
2019-04-05T05:54:47.587Z,17.10
2019-04-05T05:55:47.665Z,16.90
2019-04-05T05:56:47.667Z,17.00
2019-04-05T05:57:47.559Z,16.90
2019-04-05T05:58:47.552Z,17.00
2019-04-05T05:59:47.569Z,17.30
2019-04-05T06:00:47.550Z,17.00
2019-04-05T06:01:48.140Z,16.70
2019-04-05T06:02:48.568Z,16.90
2019-04-05T06:03:47.496Z,17.30
2019-04-05T06:04:47.484Z,16.80
2019-04-05T06:05:47.485Z,17.40
2019-04-05T06:06:47.606Z,17.20
2019-04-05T06:07:47.471Z,17.00
2019-04-05T06:08:47.440Z,17.60
2019-04-05T06:09:47.887Z,17.70
2019-04-05T06:10:47.420Z,17.70
2019-04-05T06:11:47.431Z,18.70
2019-04-05T06:12:47.393Z,18.30
2019-04-05T06:13:47.488Z,19.10
2019-04-05T06:14:47.375Z,20.70
2019-04-05T06:15:47.518Z,21.40
2019-04-05T06:16:48.018Z,21.50
2019-04-05T06:17:47.376Z,22.20
2019-04-05T06:18:48.638Z,22.10
2019-04-05T06:19:47.750Z,22.60
2019-04-05T06:20:47.307Z,23.30
2019-04-05T06:21:47.314Z,24.20
2019-04-05T06:22:47.826Z,24.00
2019-04-05T06:23:47.318Z,23.70
2019-04-05T06:24:47.445Z,24.80
2019-04-05T06:25:47.259Z,25.10
2019-04-05T06:26:47.239Z,25.20
2019-04-05T06:27:47.242Z,25.50
2019-04-05T06:28:47.374Z,25.00
2019-04-05T06:29:47.380Z,25.50
2019-04-05T06:30:47.212Z,26.10
2019-04-05T06:31:47.190Z,25.80
2019-04-05T06:32:47.178Z,25.90
2019-04-05T06:33:47.198Z,26.50
2019-04-05T06:34:47.158Z,26.30
2019-04-05T06:35:47.180Z,26.40
2019-04-05T06:36:47.139Z,26.80
2019-04-05T06:37:47.135Z,26.50
2019-04-05T06:38:47.118Z,26.70
2019-04-05T06:39:47.144Z,26.50
2019-04-05T06:40:47.105Z,26.80
2019-04-05T06:41:47.091Z,27.50
2019-04-05T06:42:47.082Z,27.10
2019-04-05T06:43:47.062Z,26.40
2019-04-05T06:44:47.052Z,26.30
2019-04-05T06:45:47.115Z,26.30
2019-04-05T06:46:47.037Z,26.90
2019-04-05T06:47:47.020Z,26.90
2019-04-05T06:48:47.028Z,26.00
2019-04-05T06:49:47.016Z,26.90
2019-04-05T06:50:47.492Z,26.20
2019-04-05T06:51:46.988Z,26.50
2019-04-05T06:52:46.974Z,26.90
2019-04-05T06:53:46.957Z,26.60
2019-04-05T06:54:46.968Z,27.20
2019-04-05T06:55:46.959Z,25.80
2019-04-05T06:56:46.931Z,27.40
2019-04-05T06:57:46.922Z,27.30
2019-04-05T06:58:46.906Z,27.30
2019-04-05T06:59:46.891Z,27.90
2019-04-05T07:00:56.814Z,27.20
2019-04-05T07:01:47.874Z,27.70
2019-04-05T07:02:46.856Z,28.50
2019-04-05T07:03:46.856Z,26.70
2019-04-05T07:04:46.895Z,28.50
2019-04-05T07:05:46.857Z,27.60
2019-04-05T07:06:46.818Z,26.80
2019-04-05T07:07:46.806Z,28.20
2019-04-05T07:08:53.659Z,28.00
2019-04-05T07:09:47.806Z,27.80
2019-04-05T07:10:46.782Z,27.30
2019-04-05T07:11:46.789Z,28.60
2019-04-05T07:12:46.774Z,27.50
2019-04-05T07:13:46.742Z,27.70
2019-04-05T07:14:46.732Z,27.80
2019-04-05T07:15:46.729Z,28.60
2019-04-05T07:16:46.740Z,28.00
2019-04-05T07:17:46.738Z,28.90
2019-04-05T07:18:46.691Z,28.30
2019-04-05T07:19:46.677Z,27.50
2019-04-05T07:20:46.663Z,27.40
2019-04-05T07:21:46.671Z,28.30
2019-04-05T07:22:46.644Z,28.10
2019-04-05T07:23:46.676Z,29.20
2019-04-05T07:24:49.417Z,28.50
2019-04-05T07:25:46.610Z,29.20
2019-04-05T07:26:46.601Z,28.60
2019-04-05T07:27:46.603Z,28.80
2019-04-05T07:28:46.619Z,28.00
2019-04-05T07:29:47.012Z,28.20
2019-04-05T07:30:46.561Z,29.40
2019-04-05T07:31:46.545Z,28.00
2019-04-05T07:32:46.553Z,28.60
2019-04-05T07:33:46.543Z,29.00
2019-04-05T07:34:46.549Z,30.70
2019-04-05T07:35:46.533Z,29.20
2019-04-05T07:36:46.498Z,29.90
2019-04-05T07:37:46.488Z,29.10
2019-04-05T07:38:46.486Z,28.20
2019-04-05T07:39:46.486Z,28.90
2019-04-05T07:40:46.483Z,29.00
2019-04-05T07:41:46.448Z,28.10
2019-04-05T07:42:46.434Z,29.00
2019-04-05T07:43:46.446Z,28.30
2019-04-05T07:44:46.440Z,28.10
2019-04-05T07:45:46.393Z,27.90
2019-04-05T07:46:46.755Z,29.30
2019-04-05T07:47:46.377Z,28.70
2019-04-05T07:48:46.377Z,28.30
2019-04-05T07:49:46.360Z,28.00
2019-04-05T07:50:46.363Z,28.40
2019-04-05T07:51:46.329Z,29.10
2019-04-05T07:52:46.320Z,29.50
2019-04-05T07:53:46.307Z,29.20
2019-04-05T07:54:46.301Z,27.50
2019-04-05T07:55:46.332Z,27.50
2019-04-05T07:56:46.515Z,27.70
2019-04-05T07:57:46.267Z,27.60
2019-04-05T07:58:46.253Z,26.50
2019-04-05T07:59:46.251Z,27.80
2019-04-05T08:00:46.251Z,27.30
2019-04-05T08:01:46.250Z,26.00
2019-04-05T08:02:46.218Z,27.30
2019-04-05T08:03:46.201Z,26.30
2019-04-05T08:04:46.198Z,27.00
2019-04-05T08:05:46.184Z,27.40
2019-04-05T08:06:46.207Z,27.80
2019-04-05T08:07:46.275Z,27.30
2019-04-05T08:08:46.155Z,27.10
2019-04-05T08:09:46.145Z,27.70
2019-04-05T08:10:46.151Z,28.00
2019-04-05T08:11:46.149Z,27.20
2019-04-05T08:12:46.107Z,26.40
2019-04-05T08:13:46.105Z,26.90
2019-04-05T08:14:46.123Z,27.00
2019-04-05T08:15:46.071Z,26.00
2019-04-05T08:16:46.063Z,26.70
2019-04-05T08:17:46.053Z,26.60
2019-04-05T08:18:57.164Z,26.70
2019-04-05T08:19:47.075Z,26.80
2019-04-05T08:20:46.030Z,26.90
2019-04-05T08:21:46.025Z,27.50
2019-04-05T08:22:46.006Z,26.40
2019-04-05T08:23:45.993Z,27.70
2019-04-05T08:24:45.979Z,27.30
2019-04-05T08:25:46.029Z,27.70
2019-04-05T08:26:45.965Z,27.70
2019-04-05T08:27:45.952Z,27.60
2019-04-05T08:28:45.948Z,28.20
2019-04-05T08:29:45.931Z,27.80
2019-04-05T08:30:45.918Z,28.20
2019-04-05T08:31:45.929Z,28.20
2019-04-05T08:32:45.908Z,28.50
2019-04-05T08:33:45.890Z,26.80
2019-04-05T08:34:45.880Z,28.50
2019-04-05T08:35:45.867Z,27.40
2019-04-05T08:36:45.874Z,28.60
2019-04-05T08:37:45.870Z,27.70
2019-04-05T08:38:45.837Z,27.80
2019-04-05T08:39:45.824Z,27.40
2019-04-05T08:40:45.843Z,27.90
2019-04-05T08:41:45.806Z,27.50
2019-04-05T08:42:45.799Z,27.70
2019-04-05T08:43:47.258Z,28.30
2019-04-05T08:44:45.820Z,28.00
2019-04-05T08:45:45.770Z,27.80
2019-04-05T08:46:45.778Z,27.90
2019-04-05T08:47:45.735Z,28.60
2019-04-05T08:48:45.730Z,28.10
2019-04-05T08:49:45.716Z,28.40
2019-04-05T08:50:45.706Z,28.80
2019-04-05T08:51:45.698Z,28.00
2019-04-05T08:52:45.714Z,28.90
2019-04-05T08:53:45.708Z,29.10
2019-04-05T08:54:45.681Z,28.20
2019-04-05T08:55:45.653Z,28.40
2019-04-05T08:56:45.654Z,29.50
2019-04-05T08:57:47.965Z,28.50
2019-04-05T08:58:45.617Z,29.40
2019-04-05T08:59:45.617Z,29.00
2019-04-05T09:00:45.611Z,29.20
2019-04-05T09:01:45.587Z,28.00
2019-04-05T09:02:45.634Z,28.50
2019-04-05T09:03:45.577Z,29.10
2019-04-05T09:04:45.568Z,29.10
2019-04-05T09:05:45.557Z,29.00
2019-04-05T09:06:45.540Z,29.30
2019-04-05T09:07:45.524Z,28.40
2019-04-05T09:08:45.542Z,29.60
2019-04-05T09:09:45.502Z,28.60
2019-04-05T09:10:45.490Z,29.50
2019-04-05T09:11:45.515Z,29.60
2019-04-05T09:12:45.474Z,29.50
2019-04-05T09:13:45.468Z,29.00
2019-04-05T09:14:45.477Z,30.00
2019-04-05T09:15:45.441Z,28.80
2019-04-05T09:16:45.437Z,29.70
2019-04-05T09:17:45.426Z,28.90
2019-04-05T09:18:45.417Z,29.50
2019-04-05T09:19:45.426Z,28.60
2019-04-05T09:20:45.409Z,28.50
2019-04-05T09:21:45.394Z,29.40
2019-04-05T09:22:45.366Z,29.20
2019-04-05T09:23:45.362Z,29.20
2019-04-05T09:24:45.385Z,29.40
2019-04-05T09:25:45.339Z,29.80
2019-04-05T09:26:45.328Z,29.30
2019-04-05T09:27:45.310Z,30.20
2019-04-05T09:28:45.307Z,29.50
2019-04-05T09:29:45.293Z,29.00
2019-04-05T09:30:45.303Z,29.90
2019-04-05T09:31:45.269Z,29.60
2019-04-05T09:32:45.315Z,29.60
2019-04-05T09:33:45.247Z,30.10
2019-04-05T09:34:45.233Z,29.10
2019-04-05T09:35:45.261Z,29.60
2019-04-05T09:36:45.226Z,30.60
2019-04-05T09:37:45.210Z,29.80
2019-04-05T09:38:45.200Z,30.10
2019-04-05T09:39:45.198Z,31.60
2019-04-05T09:40:45.171Z,30.40
2019-04-05T09:41:45.177Z,30.70
2019-04-05T09:42:45.148Z,30.80
2019-04-05T09:43:45.142Z,30.40
2019-04-05T09:44:45.133Z,31.40
2019-04-05T09:45:45.150Z,31.00
2019-04-05T09:46:47.216Z,30.00
2019-04-05T09:47:46.109Z,30.20
2019-04-05T09:48:45.142Z,30.60
2019-04-05T09:49:45.079Z,31.30
2019-04-05T09:50:45.069Z,31.00
2019-04-05T09:51:45.091Z,32.00
2019-04-05T09:52:45.044Z,30.70
2019-04-05T09:53:45.037Z,32.60
2019-04-05T09:54:45.021Z,30.50
2019-04-05T09:55:45.024Z,31.20
2019-04-05T09:56:45.024Z,31.00
2019-04-05T09:57:45.074Z,30.90
2019-04-05T09:58:44.994Z,31.00
2019-04-05T09:59:44.967Z,31.70
2019-04-05T10:00:44.960Z,30.70
2019-04-05T10:01:44.945Z,31.60
2019-04-05T10:02:44.942Z,32.40
2019-04-05T10:03:44.953Z,31.40
2019-04-05T10:04:44.923Z,31.90
2019-04-05T10:05:44.909Z,32.30
2019-04-05T10:06:44.918Z,32.30
2019-04-05T10:07:55.012Z,32.10
2019-04-05T10:08:46.385Z,32.50
2019-04-05T10:09:44.866Z,32.90
2019-04-05T10:10:44.865Z,34.20
2019-04-05T10:11:44.841Z,33.40
2019-04-05T10:12:44.829Z,33.60
2019-04-05T10:13:44.819Z,33.20
2019-04-05T10:14:44.851Z,33.50
2019-04-05T10:15:44.803Z,33.30
2019-04-05T10:16:44.796Z,33.20
2019-04-05T10:17:44.789Z,32.90
2019-04-05T10:18:44.776Z,33.40
2019-04-05T10:19:50.110Z,34.60
2019-04-05T10:20:45.771Z,33.60
2019-04-05T10:21:44.739Z,34.80
2019-04-05T10:22:44.726Z,34.60
2019-04-05T10:23:44.711Z,34.50
2019-04-05T10:24:44.701Z,34.10
2019-04-05T10:25:44.752Z,35.00
2019-04-05T10:26:44.679Z,35.00
2019-04-05T10:27:44.680Z,35.60
2019-04-05T10:28:44.669Z,34.70
2019-04-05T10:29:44.652Z,35.40
2019-04-05T10:30:44.643Z,35.80
2019-04-05T10:31:44.669Z,34.70
2019-04-05T10:32:46.219Z,34.90
2019-04-05T10:33:44.604Z,36.60
2019-04-05T10:34:44.593Z,35.00
2019-04-05T10:35:44.588Z,35.60
2019-04-05T10:36:44.589Z,36.10
2019-04-05T10:37:44.589Z,35.90
2019-04-05T10:38:44.548Z,35.90
2019-04-05T10:39:44.545Z,36.30
2019-04-05T10:40:44.535Z,35.20
2019-04-05T10:41:44.525Z,35.80
2019-04-05T10:42:44.515Z,36.10
2019-04-05T10:43:44.513Z,35.90
2019-04-05T10:44:44.481Z,35.80
2019-04-05T10:45:44.473Z,34.70
2019-04-05T10:46:44.484Z,34.70
2019-04-05T10:47:44.457Z,34.60
2019-04-05T10:48:44.466Z,34.40
2019-04-05T10:49:44.435Z,35.60
2019-04-05T10:50:44.431Z,34.20
2019-04-05T10:51:44.411Z,34.40
2019-04-05T10:52:44.401Z,34.00
2019-04-05T10:53:44.408Z,33.10
2019-04-05T10:54:44.379Z,34.00
2019-04-05T10:55:44.369Z,34.10
2019-04-05T10:56:44.362Z,34.10
2019-04-05T10:57:44.375Z,33.70
2019-04-05T10:58:44.343Z,34.20
2019-04-05T10:59:44.327Z,32.40
2019-04-05T11:00:44.323Z,31.90
2019-04-05T11:01:44.308Z,31.70
2019-04-05T11:02:44.303Z,32.50
2019-04-05T11:03:44.298Z,30.70
2019-04-05T11:04:44.268Z,30.90
2019-04-05T11:05:44.261Z,31.90
2019-04-05T11:06:44.246Z,30.90
2019-04-05T11:07:44.242Z,29.90
2019-04-05T11:08:44.267Z,29.80
2019-04-05T11:09:44.217Z,29.40
2019-04-05T11:10:44.205Z,29.80
2019-04-05T11:11:44.211Z,29.90
2019-04-05T11:12:44.195Z,29.60
2019-04-05T11:13:44.179Z,28.70
2019-04-05T11:14:44.183Z,27.40
2019-04-05T11:15:44.161Z,28.30
2019-04-05T11:16:44.138Z,28.40
2019-04-05T11:17:44.132Z,28.20
2019-04-05T11:18:45.196Z,27.80
2019-04-05T11:19:44.245Z,27.40
2019-04-05T11:20:44.104Z,27.10
2019-04-05T11:21:44.102Z,27.40
2019-04-05T11:22:46.558Z,26.30
2019-04-05T11:23:44.063Z,25.70
2019-04-05T11:24:44.056Z,26.70
2019-04-05T11:25:44.070Z,26.10
2019-04-05T11:26:44.037Z,25.20
2019-04-05T11:27:44.019Z,25.70
2019-04-05T11:28:44.013Z,25.10
2019-04-05T11:29:44.000Z,25.90
2019-04-05T11:30:44.009Z,25.40
2019-04-05T11:31:56.459Z,24.80
2019-04-05T11:32:44.982Z,25.10
2019-04-05T11:33:43.962Z,25.60
2019-04-05T11:34:43.952Z,25.20
2019-04-05T11:35:43.951Z,26.00
2019-04-05T11:36:43.927Z,25.20
2019-04-05T11:37:43.916Z,26.00
2019-04-05T11:38:43.912Z,25.60
2019-04-05T11:39:43.910Z,26.10
2019-04-05T11:40:43.907Z,25.20
2019-04-05T11:41:43.871Z,26.50
2019-04-05T11:42:43.859Z,26.10
2019-04-05T11:43:43.859Z,26.00
2019-04-05T11:44:43.851Z,25.30
2019-04-05T11:45:43.859Z,26.20
2019-04-05T11:46:43.833Z,26.00
2019-04-05T11:47:43.807Z,25.70
2019-04-05T11:48:43.815Z,25.40
2019-04-05T11:49:43.796Z,25.70
2019-04-05T11:50:43.811Z,25.90
2019-04-05T11:51:43.803Z,25.40
2019-04-05T11:52:43.764Z,26.40
2019-04-05T11:53:43.751Z,25.20
2019-04-05T11:54:45.794Z,24.70
2019-04-05T11:55:46.436Z,23.80
2019-04-05T11:56:43.713Z,25.00
2019-04-05T11:57:43.743Z,24.70
2019-04-05T11:58:43.698Z,24.30
2019-04-05T11:59:43.683Z,25.30
2019-04-05T12:00:43.674Z,26.20
2019-04-05T12:01:43.660Z,24.60
2019-04-05T12:02:43.648Z,25.30
2019-04-05T12:03:43.666Z,23.90
2019-04-05T12:04:43.633Z,24.90
2019-04-05T12:05:43.624Z,25.30
2019-04-05T12:06:43.616Z,25.30
2019-04-05T12:07:43.599Z,25.40
2019-04-05T12:08:43.603Z,24.20
2019-04-05T12:09:43.579Z,25.30
2019-04-05T12:10:43.563Z,27.70
2019-04-05T12:11:46.285Z,25.50
2019-04-05T12:12:43.570Z,25.50
2019-04-05T12:13:43.571Z,26.20
2019-04-05T12:14:43.525Z,25.00
2019-04-05T12:15:43.540Z,25.60
2019-04-05T12:16:43.502Z,25.20
2019-04-05T12:17:43.494Z,24.80
2019-04-05T12:18:43.480Z,25.30
2019-04-05T12:19:43.492Z,25.10
2019-04-05T12:20:50.922Z,24.60
2019-04-05T12:21:44.445Z,25.90
2019-04-05T12:22:43.435Z,24.70
2019-04-05T12:23:43.430Z,24.90
2019-04-05T12:24:43.457Z,25.10
2019-04-05T12:25:43.406Z,24.60
2019-04-05T12:26:43.396Z,24.20
2019-04-05T12:27:43.378Z,24.50
2019-04-05T12:28:43.373Z,24.70
2019-04-05T12:29:43.365Z,23.90
2019-04-05T12:30:45.763Z,22.90
2019-04-05T12:31:43.337Z,24.40
2019-04-05T12:32:43.338Z,24.80
2019-04-05T12:33:43.312Z,23.90
2019-04-05T12:34:43.305Z,23.30
2019-04-05T12:35:43.328Z,24.40
2019-04-05T12:36:43.301Z,24.20
2019-04-05T12:37:50.064Z,24.80
2019-04-05T12:38:44.292Z,24.80
2019-04-05T12:39:43.251Z,24.10
2019-04-05T12:40:44.208Z,24.00
2019-04-05T12:41:44.882Z,24.30
2019-04-05T12:42:43.726Z,24.30
2019-04-05T12:43:44.632Z,23.90
2019-04-05T12:44:45.042Z,23.50
2019-04-05T12:45:44.752Z,24.30
2019-04-05T12:46:43.436Z,24.00
2019-04-05T12:47:45.351Z,23.70
2019-04-05T12:48:45.439Z,24.00
2019-04-05T12:49:45.216Z,25.10
2019-04-05T12:50:44.910Z,24.30
2019-04-05T12:51:43.403Z,24.00
2019-04-05T12:52:43.117Z,24.00